createdAt,value
2019-02-19T00:01:05.776Z,36.80
2019-02-19T00:03:34.303Z,36.80
2019-02-19T00:06:02.774Z,36.90
2019-02-19T00:08:31.233Z,36.90
2019-02-19T00:10:59.704Z,36.80
2019-02-19T00:13:28.203Z,37.20
2019-02-19T00:15:56.659Z,37.00
2019-02-19T00:18:25.099Z,36.90
2019-02-19T00:20:53.556Z,36.90
2019-02-19T00:23:21.992Z,36.90
2019-02-19T00:25:50.452Z,37.00
2019-02-19T00:28:18.894Z,37.00
2019-02-19T00:30:47.340Z,37.00
2019-02-19T00:33:16.144Z,37.00
2019-02-19T00:35:44.625Z,37.20
2019-02-19T00:38:13.074Z,37.20
2019-02-19T00:40:41.499Z,37.20
2019-02-19T00:43:09.951Z,37.20
2019-02-19T00:45:38.395Z,37.30
2019-02-19T00:48:06.851Z,37.30
2019-02-19T00:50:35.357Z,37.40
2019-02-19T00:53:03.811Z,37.30
2019-02-19T00:55:32.252Z,37.40
2019-02-19T00:58:00.721Z,37.60
2019-02-19T01:00:29.160Z,37.90
2019-02-19T01:02:57.616Z,37.90
2019-02-19T01:05:26.058Z,37.80
2019-02-19T01:07:54.590Z,38.30
2019-02-19T01:10:23.108Z,38.50
2019-02-19T01:12:51.563Z,38.60
2019-02-19T01:15:25.585Z,38.40
2019-02-19T01:17:50.172Z,38.50
2019-02-19T01:20:37.940Z,38.40
2019-02-19T01:23:06.399Z,38.10
2019-02-19T01:25:34.831Z,39.30
2019-02-19T01:28:03.284Z,38.90
2019-02-19T01:30:31.714Z,38.90
2019-02-19T01:33:00.176Z,38.70
2019-02-19T01:35:28.615Z,38.70
2019-02-19T01:37:57.066Z,38.70
2019-02-19T01:40:25.571Z,39.00
2019-02-19T01:42:54.034Z,39.00
2019-02-19T01:45:22.459Z,38.80
2019-02-19T01:47:50.940Z,39.10
2019-02-19T01:50:19.394Z,39.00
2019-02-19T01:52:47.835Z,38.70
2019-02-19T01:55:16.295Z,39.60
2019-02-19T01:57:44.731Z,38.70
2019-02-19T02:00:13.771Z,38.70
2019-02-19T02:02:42.228Z,39.00
2019-02-19T02:05:10.678Z,38.90
2019-02-19T02:07:39.114Z,38.90
2019-02-19T02:10:08.026Z,38.70
2019-02-19T02:12:36.459Z,38.90
2019-02-19T02:15:05.754Z,38.90
2019-02-19T02:17:34.192Z,38.80
2019-02-19T02:20:02.652Z,38.80
2019-02-19T02:22:31.100Z,38.80
2019-02-19T02:24:59.630Z,38.70
2019-02-19T02:27:28.059Z,38.70
2019-02-19T02:29:56.539Z,38.70
2019-02-19T02:32:24.973Z,39.30
2019-02-19T02:34:53.434Z,38.70
2019-02-19T02:37:21.871Z,38.60
2019-02-19T02:39:50.319Z,38.70
2019-02-19T02:42:18.756Z,38.60
2019-02-19T02:44:47.216Z,38.70
2019-02-19T02:47:15.643Z,38.70
2019-02-19T02:49:44.102Z,38.60
2019-02-19T02:52:12.640Z,38.60
2019-02-19T02:54:41.083Z,38.60
2019-02-19T02:57:09.539Z,38.60
2019-02-19T02:59:37.985Z,38.80
2019-02-19T03:02:06.463Z,39.60
2019-02-19T03:04:35.042Z,38.90
2019-02-19T03:07:10.612Z,39.00
2019-02-19T03:09:39.049Z,39.10
2019-02-19T03:12:07.601Z,39.30
2019-02-19T03:14:36.104Z,39.30
2019-02-19T03:17:04.576Z,39.20
2019-02-19T03:19:33.054Z,39.30
2019-02-19T03:22:01.620Z,39.40
2019-02-19T03:24:30.470Z,39.40
2019-02-19T03:26:59.001Z,39.80
2019-02-19T03:29:27.443Z,39.70
2019-02-19T03:31:55.917Z,39.70
2019-02-19T03:34:24.430Z,39.80
2019-02-19T03:36:52.884Z,40.00
2019-02-19T03:39:21.440Z,40.10
2019-02-19T03:41:49.990Z,40.30
2019-02-19T03:44:18.446Z,40.50
2019-02-19T03:46:47.003Z,40.30
2019-02-19T03:49:15.451Z,40.30
2019-02-19T03:51:43.930Z,40.20
2019-02-19T03:54:12.664Z,40.30
2019-02-19T03:56:41.148Z,40.40
2019-02-19T03:59:09.652Z,40.30
2019-02-19T04:01:38.123Z,40.10
2019-02-19T04:04:06.641Z,40.20
2019-02-19T04:06:35.094Z,40.20
2019-02-19T04:09:04.976Z,40.30
2019-02-19T04:11:33.635Z,40.30
2019-02-19T04:14:02.261Z,40.20
2019-02-19T04:16:30.691Z,40.40
2019-02-19T04:18:59.185Z,40.30
2019-02-19T04:21:27.636Z,41.00
2019-02-19T04:23:56.340Z,40.40
2019-02-19T04:26:24.851Z,40.20
2019-02-19T04:28:53.324Z,40.50
2019-02-19T04:31:21.827Z,40.70
2019-02-19T04:33:50.398Z,40.50
2019-02-19T04:36:18.828Z,40.80
2019-02-19T04:38:47.324Z,40.80
2019-02-19T04:41:15.852Z,40.90
2019-02-19T04:43:44.308Z,41.00
2019-02-19T04:46:12.742Z,41.20
2019-02-19T04:48:41.275Z,41.40
2019-02-19T04:51:09.812Z,41.50
2019-02-19T04:53:38.356Z,41.50
2019-02-19T04:56:06.988Z,41.20
2019-02-19T04:58:35.438Z,41.30
2019-02-19T05:01:03.900Z,41.30
2019-02-19T05:03:32.327Z,41.50
2019-02-19T05:06:00.864Z,41.70
2019-02-19T05:08:29.390Z,41.80
2019-02-19T05:10:59.500Z,41.90
2019-02-19T05:13:28.021Z,42.00
2019-02-19T05:15:56.570Z,41.80
2019-02-19T05:18:25.034Z,41.70
2019-02-19T05:20:53.503Z,41.80
2019-02-19T05:23:21.947Z,41.70
2019-02-19T05:25:50.408Z,41.70
2019-02-19T05:28:18.845Z,42.10
2019-02-19T05:30:47.374Z,42.10
2019-02-19T05:33:15.908Z,41.80
2019-02-19T05:35:44.441Z,42.00
2019-02-19T05:38:12.886Z,41.80
2019-02-19T05:40:41.351Z,41.70
2019-02-19T05:43:09.834Z,41.80
2019-02-19T05:45:38.263Z,41.60
2019-02-19T05:48:06.726Z,41.70
2019-02-19T05:50:35.178Z,41.50
2019-02-19T05:53:03.669Z,41.70
2019-02-19T05:55:32.180Z,41.80
2019-02-19T05:58:00.648Z,41.70
2019-02-19T06:00:29.142Z,42.00
2019-02-19T06:02:57.615Z,42.20
2019-02-19T06:05:26.069Z,42.00
2019-02-19T06:07:54.558Z,41.80
2019-02-19T06:10:23.066Z,42.00
2019-02-19T06:12:51.620Z,42.10
2019-02-19T06:15:20.146Z,41.90
2019-02-19T06:17:48.599Z,42.10
2019-02-19T06:20:17.021Z,42.30
2019-02-19T06:22:45.466Z,42.20
2019-02-19T06:25:13.926Z,42.10
2019-02-19T06:27:42.405Z,42.00
2019-02-19T06:30:14.116Z,42.00
2019-02-19T06:32:42.573Z,42.00
2019-02-19T06:35:11.071Z,41.80
2019-02-19T06:37:39.533Z,41.60
2019-02-19T06:40:11.075Z,41.70
2019-02-19T06:42:39.623Z,41.80
2019-02-19T06:45:08.210Z,42.40
2019-02-19T06:47:36.660Z,42.00
2019-02-19T06:50:05.895Z,42.00
2019-02-19T06:52:34.355Z,42.20
2019-02-19T06:55:02.804Z,42.00
2019-02-19T06:57:31.242Z,42.10
2019-02-19T06:59:59.730Z,41.90
2019-02-19T07:02:29.899Z,41.80
2019-02-19T07:04:59.876Z,42.10
2019-02-19T07:07:28.293Z,42.20
2019-02-19T07:09:56.834Z,42.30
2019-02-19T07:12:25.263Z,42.20
2019-02-19T07:14:53.810Z,42.20
2019-02-19T07:17:22.320Z,42.20
2019-02-19T07:19:50.801Z,42.00
2019-02-19T07:22:19.235Z,42.00
2019-02-19T07:24:47.749Z,42.10
2019-02-19T07:27:16.200Z,41.90
2019-02-19T07:29:44.665Z,42.10
2019-02-19T07:32:13.113Z,42.00
2019-02-19T07:34:41.599Z,42.00
2019-02-19T07:37:10.112Z,41.80
2019-02-19T07:39:38.634Z,41.80
2019-02-19T07:42:07.104Z,41.70
2019-02-19T07:44:35.558Z,41.80
2019-02-19T07:47:04.016Z,41.80
2019-02-19T07:49:32.527Z,41.80
2019-02-19T07:52:01.007Z,41.70
2019-02-19T07:54:29.451Z,41.90
2019-02-19T07:56:58.240Z,41.90
2019-02-19T07:59:26.752Z,41.90
2019-02-19T08:01:55.759Z,42.00
2019-02-19T08:04:24.210Z,42.20
2019-02-19T08:06:52.670Z,42.10
2019-02-19T08:09:21.166Z,42.20
2019-02-19T08:11:49.699Z,42.20
2019-02-19T08:14:18.157Z,42.30
2019-02-19T08:16:46.646Z,42.50
2019-02-19T08:19:15.152Z,42.50
2019-02-19T08:21:43.621Z,42.70
2019-02-19T08:24:12.082Z,42.80
2019-02-19T08:26:40.561Z,43.10
2019-02-19T08:29:13.953Z,43.20
2019-02-19T08:31:39.301Z,43.30
2019-02-19T08:34:07.818Z,43.30
2019-02-19T08:36:36.332Z,43.40
2019-02-19T08:39:05.531Z,43.40
2019-02-19T08:41:33.999Z,43.60
2019-02-19T08:44:02.456Z,43.90
2019-02-19T08:46:31.046Z,43.90
2019-02-19T08:49:00.158Z,43.90
2019-02-19T08:51:32.081Z,44.00
2019-02-19T08:54:01.268Z,44.20
2019-02-19T08:56:30.802Z,44.20
2019-02-19T08:59:01.184Z,44.70
2019-02-19T09:01:31.014Z,44.60
2019-02-19T09:04:00.730Z,44.60
2019-02-19T09:06:33.230Z,44.90
2019-02-19T09:09:07.056Z,45.20
2019-02-19T09:11:35.524Z,45.20
2019-02-19T09:14:04.165Z,45.40
2019-02-19T09:16:32.670Z,45.40
2019-02-19T09:19:01.235Z,45.50
2019-02-19T09:21:29.748Z,45.80
2019-02-19T09:23:58.566Z,45.70
2019-02-19T09:26:27.439Z,45.90
2019-02-19T09:28:55.903Z,46.30
2019-02-19T09:31:24.344Z,46.30
2019-02-19T09:33:52.805Z,46.40
2019-02-19T09:36:21.304Z,46.40
2019-02-19T09:38:49.750Z,46.80
2019-02-19T09:41:18.230Z,46.80
2019-02-19T09:43:46.667Z,47.00
2019-02-19T09:46:15.190Z,46.80
2019-02-19T09:48:43.638Z,46.90
2019-02-19T09:51:12.092Z,47.20
2019-02-19T09:53:40.535Z,47.10
2019-02-19T09:56:09.002Z,47.30
2019-02-19T09:58:37.514Z,48.00
2019-02-19T10:01:06.532Z,47.80
2019-02-19T10:03:34.971Z,47.90
2019-02-19T10:06:03.470Z,47.90
2019-02-19T10:08:31.983Z,48.50
2019-02-19T10:11:00.462Z,48.60
2019-02-19T10:13:28.977Z,48.30
2019-02-19T10:15:57.435Z,48.40
2019-02-19T10:18:25.869Z,48.50
2019-02-19T10:20:54.352Z,49.10
2019-02-19T10:23:22.856Z,48.90
2019-02-19T10:25:51.471Z,49.10
2019-02-19T10:28:19.922Z,49.30
2019-02-19T10:30:48.410Z,49.20
2019-02-19T10:33:16.837Z,49.40
2019-02-19T10:35:45.443Z,50.00
2019-02-19T10:38:13.886Z,49.50
2019-02-19T10:40:42.363Z,50.10
2019-02-19T10:43:10.815Z,50.80
2019-02-19T10:45:39.284Z,50.90
2019-02-19T10:48:08.063Z,50.10
2019-02-19T10:50:36.561Z,50.40
2019-02-19T10:53:05.059Z,50.40
2019-02-19T10:55:33.566Z,50.40
2019-02-19T10:58:02.047Z,50.30
2019-02-19T11:00:30.489Z,50.30
2019-02-19T11:02:58.935Z,50.10
2019-02-19T11:05:27.399Z,50.00
2019-02-19T11:07:55.859Z,49.80
2019-02-19T11:10:24.295Z,49.70
2019-02-19T11:12:52.746Z,49.80
2019-02-19T11:15:21.180Z,50.50
2019-02-19T11:17:49.645Z,50.10
2019-02-19T11:20:20.690Z,50.50
2019-02-19T11:22:49.457Z,49.70
2019-02-19T11:25:18.059Z,49.90
2019-02-19T11:27:46.538Z,50.10
2019-02-19T11:30:17.039Z,50.10
2019-02-19T11:32:45.515Z,49.80
2019-02-19T11:35:15.305Z,49.40
2019-02-19T11:37:43.795Z,48.90
2019-02-19T11:40:13.581Z,48.50
2019-02-19T11:42:42.457Z,48.10
2019-02-19T11:45:17.940Z,48.00
2019-02-19T11:47:46.346Z,47.80
2019-02-19T11:50:14.860Z,47.70
2019-02-19T11:52:43.301Z,47.90
2019-02-19T11:55:16.938Z,47.90
2019-02-19T11:57:45.457Z,47.30
2019-02-19T12:00:17.099Z,46.60
2019-02-19T12:02:45.567Z,45.20
2019-02-19T12:05:14.137Z,44.80
2019-02-19T12:07:42.670Z,44.60
2019-02-19T12:10:12.046Z,44.40
2019-02-19T12:12:40.683Z,44.00
2019-02-19T12:15:13.076Z,43.60
2019-02-19T12:17:41.526Z,42.60
2019-02-19T12:20:11.831Z,42.20
2019-02-19T12:22:40.313Z,42.00
2019-02-19T12:25:10.252Z,41.70
2019-02-19T12:27:38.748Z,41.50
2019-02-19T12:30:12.764Z,40.50
2019-02-19T12:32:41.240Z,40.30
2019-02-19T12:35:10.294Z,40.60
2019-02-19T12:37:38.752Z,40.40
2019-02-19T12:40:12.196Z,39.50
2019-02-19T12:42:40.678Z,38.60
2019-02-19T12:45:11.303Z,37.90
2019-02-19T12:47:39.758Z,37.00
2019-02-19T12:50:11.048Z,38.10
2019-02-19T12:52:40.401Z,37.40
2019-02-19T12:55:10.076Z,37.80
2019-02-19T12:57:38.595Z,37.20
2019-02-19T13:00:10.515Z,37.10
2019-02-19T13:02:38.996Z,36.40
2019-02-19T13:05:12.324Z,35.80
2019-02-19T13:07:40.825Z,35.80
2019-02-19T13:10:10.830Z,34.80
2019-02-19T13:12:39.360Z,34.50
2019-02-19T13:15:13.843Z,32.80
2019-02-19T13:17:42.431Z,32.20
2019-02-19T13:20:13.199Z,32.20
2019-02-19T13:22:41.882Z,31.40
2019-02-19T13:25:11.976Z,30.60
2019-02-19T13:27:40.453Z,30.00
2019-02-19T13:30:12.003Z,29.40
2019-02-19T13:32:40.468Z,30.10
2019-02-19T13:35:11.230Z,30.20
2019-02-19T13:37:39.808Z,30.10
2019-02-19T13:40:10.872Z,30.00
2019-02-19T13:42:39.453Z,30.40
2019-02-19T13:45:11.111Z,29.90
2019-02-19T13:47:39.563Z,30.40
2019-02-19T13:50:17.099Z,30.80
2019-02-19T13:52:47.356Z,30.60
2019-02-19T13:55:17.466Z,30.20
2019-02-19T13:57:45.995Z,30.70
2019-02-19T14:00:16.166Z,30.20
2019-02-19T14:02:45.068Z,30.50
2019-02-19T14:05:13.504Z,30.50
2019-02-19T14:07:41.952Z,30.60
2019-02-19T14:10:11.871Z,31.10
2019-02-19T14:12:40.380Z,31.50
2019-02-19T14:15:12.790Z,32.00
2019-02-19T14:17:41.344Z,32.50
2019-02-19T14:20:11.511Z,33.10
2019-02-19T14:22:44.523Z,33.60
2019-02-19T14:25:23.475Z,34.20
2019-02-19T14:28:10.247Z,35.10
2019-02-19T14:30:56.626Z,35.70
2019-02-19T14:33:26.700Z,36.00
2019-02-19T14:36:12.034Z,36.80
2019-02-19T14:38:58.118Z,37.30
2019-02-19T14:41:30.913Z,37.60
2019-02-19T14:44:01.080Z,37.50
2019-02-19T14:46:46.351Z,37.20
2019-02-19T14:49:16.514Z,36.60
2019-02-19T14:51:46.761Z,36.20
2019-02-19T14:54:16.896Z,35.50
2019-02-19T14:57:22.479Z,35.50
2019-02-19T14:59:52.587Z,35.30
2019-02-19T15:02:39.014Z,34.90
2019-02-19T15:05:15.246Z,35.10
2019-02-19T15:07:45.455Z,35.00
2019-02-19T15:10:24.898Z,35.50
2019-02-19T15:13:04.064Z,35.70
2019-02-19T15:15:34.449Z,36.00
2019-02-19T15:18:20.751Z,36.30
2019-02-19T15:20:53.779Z,36.50
2019-02-19T15:23:26.560Z,36.80
2019-02-19T15:25:56.667Z,36.90
2019-02-19T15:28:36.096Z,37.40
2019-02-19T15:31:22.268Z,37.60
2019-02-19T15:33:52.368Z,38.10
2019-02-19T15:36:40.910Z,38.30
2019-02-19T15:39:28.172Z,38.60
2019-02-19T15:42:00.987Z,38.70
2019-02-19T15:44:31.066Z,38.90
2019-02-19T15:47:09.856Z,39.30
2019-02-19T15:49:47.581Z,39.40
2019-02-19T15:52:11.773Z,39.60
2019-02-19T15:54:54.135Z,39.60
2019-02-19T15:57:39.647Z,39.70
2019-02-19T16:00:26.763Z,39.70
2019-02-19T16:02:56.855Z,40.00
2019-02-19T16:05:26.978Z,40.20
2019-02-19T16:07:59.832Z,40.30
2019-02-19T16:10:29.947Z,40.40
2019-02-19T16:13:06.224Z,40.50
2019-02-19T16:15:41.892Z,40.60
2019-02-19T16:18:24.097Z,40.70
2019-02-19T16:20:56.992Z,41.00
2019-02-19T16:23:27.112Z,40.80
2019-02-19T16:25:59.658Z,41.00
2019-02-19T16:28:33.040Z,41.30
2019-02-19T16:31:12.127Z,41.60
2019-02-19T16:33:42.237Z,41.70
2019-02-19T16:36:18.225Z,41.80
2019-02-19T16:38:59.068Z,41.70
2019-02-19T16:41:29.380Z,41.60
2019-02-19T16:44:02.646Z,41.80
2019-02-19T16:46:35.597Z,42.00
2019-02-19T16:49:05.901Z,41.70
2019-02-19T16:51:41.925Z,41.60
2019-02-19T16:54:18.044Z,41.70
2019-02-19T16:56:51.042Z,41.60
2019-02-19T16:59:21.167Z,41.60
2019-02-19T17:02:06.011Z,41.60
2019-02-19T17:04:52.470Z,41.50
2019-02-19T17:07:37.362Z,41.70
2019-02-19T17:10:19.340Z,41.70
2019-02-19T17:12:58.189Z,41.70
2019-02-19T17:15:40.537Z,42.50
2019-02-19T17:18:16.769Z,41.80
2019-02-19T17:20:47.037Z,41.70
2019-02-19T17:23:34.104Z,41.90
2019-02-19T17:26:04.224Z,41.80
2019-02-19T17:28:49.068Z,42.00
2019-02-19T17:31:27.762Z,42.10
2019-02-19T17:34:26.549Z,42.60
2019-02-19T17:37:02.552Z,41.40
2019-02-19T17:39:32.636Z,42.50
2019-02-19T17:42:02.780Z,42.50
2019-02-19T17:44:35.333Z,42.60
2019-02-19T17:47:08.423Z,42.60
2019-02-19T17:49:38.505Z,42.40
2019-02-19T17:52:24.934Z,42.50
2019-02-19T17:55:11.060Z,42.60
2019-02-19T17:57:41.237Z,42.50
2019-02-19T18:00:16.309Z,42.80
2019-02-19T18:02:49.140Z,42.80
2019-02-19T18:05:19.256Z,42.90
2019-02-19T18:07:49.458Z,42.90
2019-02-19T18:10:19.684Z,43.20
2019-02-19T18:13:06.280Z,43.30
2019-02-19T18:15:42.404Z,43.50
2019-02-19T18:18:28.711Z,43.60
2019-02-19T18:20:57.153Z,43.60
2019-02-19T18:23:25.594Z,43.80
2019-02-19T18:25:54.035Z,44.00
2019-02-19T18:28:22.487Z,43.90
2019-02-19T18:30:50.930Z,44.00
2019-02-19T18:33:19.402Z,44.00
2019-02-19T18:35:47.899Z,43.70
2019-02-19T18:38:16.362Z,43.80
2019-02-19T18:40:44.803Z,43.80
2019-02-19T18:43:13.255Z,44.10
2019-02-19T18:45:41.696Z,43.90
2019-02-19T18:48:10.214Z,44.90
2019-02-19T18:50:38.672Z,44.20
2019-02-19T18:53:07.768Z,44.50
2019-02-19T18:55:36.287Z,44.50
2019-02-19T18:58:05.015Z,44.70
2019-02-19T19:00:33.483Z,45.30
2019-02-19T19:03:01.957Z,45.40
2019-02-19T19:05:30.416Z,45.50
2019-02-19T19:07:58.944Z,45.90
2019-02-19T19:10:27.444Z,46.10
2019-02-19T19:12:55.957Z,45.80
2019-02-19T19:15:24.475Z,46.30
2019-02-19T19:17:52.900Z,46.20
2019-02-19T19:20:21.449Z,46.30
2019-02-19T19:22:49.962Z,46.20
2019-02-19T19:25:18.459Z,46.30
2019-02-19T19:27:46.896Z,46.20
2019-02-19T19:30:16.778Z,46.20
2019-02-19T19:32:45.242Z,46.30
2019-02-19T19:35:13.684Z,46.20
2019-02-19T19:37:42.321Z,46.30
2019-02-19T19:40:12.303Z,46.50
2019-02-19T19:42:40.839Z,46.10
2019-02-19T19:45:11.014Z,46.40
2019-02-19T19:47:39.487Z,46.30
2019-02-19T19:50:10.118Z,46.40
2019-02-19T19:52:38.580Z,46.60
2019-02-19T19:55:09.802Z,46.50
2019-02-19T19:57:38.322Z,46.80
2019-02-19T20:00:12.185Z,46.80
2019-02-19T20:02:40.776Z,46.90
2019-02-19T20:05:10.261Z,48.00
2019-02-19T20:07:38.803Z,47.50
2019-02-19T20:10:12.520Z,47.80
2019-02-19T20:12:41.046Z,47.80
2019-02-19T20:15:11.723Z,47.80
2019-02-19T20:17:40.211Z,47.90
2019-02-19T20:20:12.388Z,47.80
2019-02-19T20:22:41.469Z,48.40
2019-02-19T20:25:13.527Z,48.10
2019-02-19T20:27:41.993Z,47.90
2019-02-19T20:30:15.674Z,48.10
2019-02-19T20:32:45.909Z,48.70
2019-02-19T20:35:14.541Z,48.40
2019-02-19T20:37:43.076Z,48.40
2019-02-19T20:40:12.083Z,48.30
2019-02-19T20:42:40.738Z,48.10
2019-02-19T20:45:12.390Z,48.30
2019-02-19T20:47:41.515Z,48.10
2019-02-19T20:50:13.415Z,48.00
2019-02-19T20:52:41.840Z,48.00
2019-02-19T20:55:11.525Z,48.00
2019-02-19T20:57:39.968Z,48.10
2019-02-19T21:00:11.582Z,47.80
2019-02-19T21:02:40.101Z,47.70
2019-02-19T21:05:10.352Z,47.20
2019-02-19T21:07:38.779Z,47.50
2019-02-19T21:10:12.918Z,47.60
2019-02-19T21:12:41.401Z,47.60
2019-02-19T21:15:10.056Z,47.80
2019-02-19T21:17:38.497Z,48.10
2019-02-19T21:20:11.403Z,47.90
2019-02-19T21:22:39.844Z,47.80
2019-02-19T21:25:09.721Z,47.90
2019-02-19T21:27:38.373Z,47.90
2019-02-19T21:30:15.006Z,47.70
2019-02-19T21:32:43.539Z,47.80
2019-02-19T21:35:12.340Z,47.90
2019-02-19T21:37:40.784Z,47.90
2019-02-19T21:40:14.062Z,47.80
2019-02-19T21:42:42.683Z,47.80
2019-02-19T21:45:12.884Z,47.80
2019-02-19T21:47:41.350Z,47.80
2019-02-19T21:50:11.439Z,48.40
2019-02-19T21:52:39.984Z,48.10
2019-02-19T21:55:10.584Z,48.30
2019-02-19T21:57:39.035Z,48.30
2019-02-19T22:00:11.132Z,48.30
2019-02-19T22:02:39.786Z,49.10
2019-02-19T22:05:08.368Z,48.90
2019-02-19T22:07:36.941Z,49.70
2019-02-19T22:10:10.424Z,49.70
2019-02-19T22:12:39.269Z,49.90
2019-02-19T22:15:10.407Z,50.20
2019-02-19T22:17:39.355Z,50.00
2019-02-19T22:20:33.922Z,50.70
2019-02-19T22:23:02.640Z,50.60
2019-02-19T22:25:50.659Z,50.70
2019-02-19T22:28:19.220Z,50.20
2019-02-19T22:30:48.053Z,50.70
2019-02-19T22:33:16.649Z,50.50
2019-02-19T22:35:45.104Z,50.40
2019-02-19T22:38:13.792Z,50.50
2019-02-19T22:40:42.295Z,50.60
2019-02-19T22:43:10.776Z,50.20
2019-02-19T22:45:39.216Z,50.20
2019-02-19T22:48:07.667Z,50.10
2019-02-19T22:50:36.106Z,50.10
2019-02-19T22:53:06.180Z,50.20
2019-02-19T22:55:51.787Z,50.50
2019-02-19T22:58:20.416Z,50.10
2019-02-19T23:00:50.897Z,50.40
2019-02-19T23:03:21.116Z,50.10
2019-02-19T23:05:49.631Z,49.40
2019-02-19T23:08:18.076Z,49.90
2019-02-19T23:10:46.591Z,50.30
2019-02-19T23:13:15.491Z,50.40
2019-02-19T23:15:43.962Z,50.60
2019-02-19T23:18:12.399Z,50.50
2019-02-19T23:20:40.850Z,50.50
2019-02-19T23:23:09.278Z,51.40
2019-02-19T23:25:37.738Z,51.50
2019-02-19T23:28:06.165Z,51.70
2019-02-19T23:30:34.619Z,51.80
2019-02-19T23:33:03.057Z,51.80
2019-02-19T23:35:39.256Z,51.80
2019-02-19T23:38:07.699Z,51.70
2019-02-19T23:40:36.148Z,51.60
2019-02-19T23:43:04.587Z,51.60
2019-02-19T23:45:33.400Z,51.70
2019-02-19T23:48:01.896Z,52.40
2019-02-19T23:50:30.372Z,52.20
2019-02-19T23:52:58.809Z,52.40
2019-02-19T23:55:27.353Z,52.20
2019-02-19T23:57:55.856Z,52.20
